createdAt,value
2022-11-20T00:02:26.387Z,22.90
2022-11-20T00:04:52.760Z,21.63
2022-11-20T00:07:19.130Z,22.45
2022-11-20T00:09:45.504Z,20.95
2022-11-20T00:12:11.796Z,21.80
2022-11-20T00:14:38.152Z,21.83
2022-11-20T00:17:04.636Z,23.35
2022-11-20T00:19:30.966Z,23.45
2022-11-20T00:21:57.235Z,22.65
2022-11-20T00:24:23.597Z,21.38
2022-11-20T00:26:50.015Z,22.05
2022-11-20T00:29:16.634Z,21.75
2022-11-20T00:31:42.974Z,23.65
2022-11-20T00:34:10.083Z,22.20
2022-11-20T00:36:36.450Z,22.35
2022-11-20T00:39:02.892Z,22.45
2022-11-20T00:41:30.160Z,21.05
2022-11-20T00:43:56.726Z,22.73
2022-11-20T00:46:23.992Z,22.40
2022-11-20T00:48:50.721Z,21.75
2022-11-20T00:51:18.518Z,22.70
2022-11-20T00:53:45.010Z,22.13
2022-11-20T00:56:13.127Z,23.15
2022-11-20T00:58:40.961Z,23.17
2022-11-20T01:01:10.481Z,24.50
2022-11-20T01:03:39.069Z,24.02
2022-11-20T01:06:07.036Z,23.48
2022-11-20T01:08:34.212Z,24.48
2022-11-20T01:11:02.519Z,24.65
2022-11-20T01:13:38.413Z,24.35
2022-11-20T01:16:04.756Z,24.23
2022-11-20T01:18:31.121Z,25.08
2022-11-20T01:21:01.093Z,23.90
2022-11-20T01:23:27.383Z,24.38
2022-11-20T01:25:53.708Z,24.63
2022-11-20T01:28:20.008Z,25.30
2022-11-20T01:30:46.373Z,26.13
2022-11-20T01:33:12.696Z,25.98
2022-11-20T01:35:39.046Z,25.42
2022-11-20T01:38:05.343Z,23.83
2022-11-20T01:40:31.647Z,26.10
2022-11-20T01:43:22.247Z,26.58
2022-11-20T01:45:51.534Z,25.85
2022-11-20T01:48:18.989Z,26.40
2022-11-20T01:50:45.366Z,25.77
2022-11-20T01:53:13.874Z,26.48
2022-11-20T01:55:42.431Z,26.85
2022-11-20T01:58:09.379Z,26.58
2022-11-20T02:00:35.965Z,25.88
2022-11-20T02:03:04.668Z,26.65
2022-11-20T02:05:40.010Z,26.88
2022-11-20T02:08:06.694Z,27.10
2022-11-20T02:10:33.231Z,26.63
2022-11-20T02:13:18.539Z,27.80
2022-11-20T02:15:45.171Z,26.20
2022-11-20T02:18:12.707Z,26.23
2022-11-20T02:20:39.704Z,26.77
2022-11-20T02:23:09.606Z,25.90
2022-11-20T02:25:36.460Z,24.80
2022-11-20T02:28:02.919Z,26.27
2022-11-20T02:30:29.269Z,26.50
2022-11-20T02:32:55.612Z,25.52
2022-11-20T02:35:21.875Z,25.67
2022-11-20T02:37:49.337Z,25.02
2022-11-20T02:40:15.644Z,26.52
2022-11-20T02:42:42.084Z,27.08
2022-11-20T02:45:08.651Z,27.38
2022-11-20T02:47:34.980Z,27.40
2022-11-20T02:50:01.344Z,28.33
2022-11-20T02:52:27.654Z,26.52
2022-11-20T02:54:54.039Z,27.80
2022-11-20T02:57:20.383Z,27.65
2022-11-20T02:59:46.700Z,26.80
2022-11-20T03:02:13.020Z,28.20
2022-11-20T03:04:39.308Z,27.00
2022-11-20T03:07:05.747Z,26.60
2022-11-20T03:09:32.212Z,28.42
2022-11-20T03:11:58.508Z,27.48
2022-11-20T03:14:24.848Z,27.80
2022-11-20T03:16:51.184Z,27.58
2022-11-20T03:19:17.632Z,27.42
2022-11-20T03:21:44.016Z,26.60
2022-11-20T03:24:10.379Z,28.08
2022-11-20T03:26:36.746Z,27.38
2022-11-20T03:29:04.512Z,27.15
2022-11-20T03:31:32.215Z,27.80
2022-11-20T03:33:58.970Z,27.48
2022-11-20T03:36:25.952Z,27.00
2022-11-20T03:38:53.700Z,27.05
2022-11-20T03:41:24.672Z,27.58
2022-11-20T03:43:58.171Z,28.25
2022-11-20T03:46:24.585Z,27.95
2022-11-20T03:48:52.198Z,27.27
2022-11-20T03:51:19.959Z,28.15
2022-11-20T03:53:47.281Z,28.02
2022-11-20T03:56:14.654Z,28.98
2022-11-20T03:58:41.370Z,30.17
2022-11-20T04:01:12.430Z,29.83
2022-11-20T04:03:39.423Z,28.95
2022-11-20T04:06:06.287Z,28.88
2022-11-20T04:08:32.931Z,29.13
2022-11-20T04:11:09.144Z,30.58
2022-11-20T04:13:35.597Z,30.08
2022-11-20T04:16:01.883Z,29.75
2022-11-20T04:18:28.179Z,29.80
2022-11-20T04:20:54.505Z,30.00
2022-11-20T04:23:23.378Z,29.48
2022-11-20T04:25:54.265Z,30.92
2022-11-20T04:28:21.020Z,30.00
2022-11-20T04:30:47.490Z,32.33
2022-11-20T04:33:13.775Z,30.92
2022-11-20T04:35:40.096Z,31.08
2022-11-20T04:38:06.576Z,31.48
2022-11-20T04:40:32.928Z,30.88
2022-11-20T04:42:59.333Z,30.52
2022-11-20T04:45:25.647Z,31.05
2022-11-20T04:47:51.988Z,30.23
2022-11-20T04:50:18.321Z,30.45
2022-11-20T04:52:44.684Z,29.52
2022-11-20T04:55:11.010Z,31.45
2022-11-20T04:57:37.343Z,31.70
2022-11-20T05:00:04.173Z,30.45
2022-11-20T05:02:31.783Z,31.45
2022-11-20T05:04:58.123Z,31.77
2022-11-20T05:07:24.515Z,31.25
2022-11-20T05:09:50.866Z,31.38
2022-11-20T05:12:17.192Z,32.05
2022-11-20T05:14:43.494Z,30.48
2022-11-20T05:17:13.316Z,32.45
2022-11-20T05:19:39.660Z,31.90
2022-11-20T05:22:06.255Z,32.42
2022-11-20T05:24:32.593Z,31.85
2022-11-20T05:26:58.990Z,32.75
2022-11-20T05:29:25.332Z,31.92
2022-11-20T05:31:51.724Z,30.70
2022-11-20T05:34:18.121Z,32.58
2022-11-20T05:36:44.409Z,31.67
2022-11-20T05:39:10.771Z,32.85
2022-11-20T05:41:37.120Z,32.22
2022-11-20T05:44:03.561Z,31.58
2022-11-20T05:46:30.008Z,32.20
2022-11-20T05:48:57.356Z,32.33
2022-11-20T05:51:24.310Z,31.63
2022-11-20T05:53:50.710Z,30.90
2022-11-20T05:56:18.489Z,28.90
2022-11-20T05:58:45.199Z,29.45
2022-11-20T06:01:16.049Z,30.05
2022-11-20T06:03:50.316Z,27.15
2022-11-20T06:06:17.258Z,27.40
2022-11-20T06:08:44.145Z,27.15
2022-11-20T06:11:11.253Z,26.27
2022-11-20T06:13:41.803Z,27.27
2022-11-20T06:16:08.795Z,26.98
2022-11-20T06:18:35.242Z,27.92
2022-11-20T06:21:02.509Z,27.65
2022-11-20T06:23:29.799Z,26.85
2022-11-20T06:25:56.124Z,26.20
2022-11-20T06:28:22.986Z,26.88
2022-11-20T06:30:49.306Z,27.40
2022-11-20T06:33:15.656Z,28.92
2022-11-20T06:35:42.017Z,26.67
2022-11-20T06:38:08.344Z,29.67
2022-11-20T06:40:34.756Z,29.35
2022-11-20T06:43:01.092Z,28.20
2022-11-20T06:45:27.693Z,28.70
2022-11-20T06:47:54.000Z,29.52
2022-11-20T06:50:20.339Z,28.75
2022-11-20T06:52:46.599Z,26.77
2022-11-20T06:55:12.847Z,26.65
2022-11-20T06:57:39.134Z,26.77
2022-11-20T07:00:05.711Z,27.35
2022-11-20T07:02:32.096Z,27.23
2022-11-20T07:04:58.389Z,26.00
2022-11-20T07:07:24.765Z,25.77
2022-11-20T07:09:51.212Z,25.58
2022-11-20T07:12:17.554Z,23.67
2022-11-20T07:14:43.879Z,21.65
2022-11-20T07:17:10.283Z,22.52
2022-11-20T07:19:36.575Z,22.13
2022-11-20T07:22:02.954Z,23.02
2022-11-20T07:24:29.296Z,23.08
2022-11-20T07:26:55.581Z,20.95
2022-11-20T07:29:22.024Z,23.08
2022-11-20T07:31:48.418Z,24.33
2022-11-20T07:34:14.766Z,28.73
2022-11-20T07:36:41.085Z,24.23
2022-11-20T07:39:07.444Z,27.52
2022-11-20T07:41:33.901Z,22.52
2022-11-20T07:44:00.226Z,24.48
2022-11-20T07:46:26.647Z,22.67
2022-11-20T07:48:53.252Z,23.25
2022-11-20T07:51:19.930Z,22.65
2022-11-20T07:53:46.215Z,22.65
2022-11-20T07:56:12.585Z,20.25
2022-11-20T07:58:38.900Z,21.58
2022-11-20T08:01:08.709Z,22.00
2022-11-20T08:03:35.592Z,23.13
2022-11-20T08:06:02.271Z,22.08
2022-11-20T08:08:31.321Z,22.48
2022-11-20T08:11:20.074Z,20.85
2022-11-20T08:14:05.116Z,21.38
2022-11-20T08:16:31.499Z,23.67
2022-11-20T08:18:58.021Z,24.33
2022-11-20T08:21:24.849Z,24.23
2022-11-20T08:23:51.332Z,23.50
2022-11-20T08:26:17.645Z,23.45
2022-11-20T08:28:44.895Z,24.67
2022-11-20T08:31:11.241Z,23.98
2022-11-20T08:33:37.608Z,24.17
2022-11-20T08:36:04.290Z,23.70
2022-11-20T08:38:31.100Z,22.23
2022-11-20T08:41:19.976Z,23.77
2022-11-20T08:43:46.319Z,21.60
2022-11-20T08:46:12.655Z,20.17
2022-11-20T08:48:38.993Z,18.20
2022-11-20T08:51:05.571Z,17.42
2022-11-20T08:53:32.157Z,17.27
2022-11-20T08:55:59.168Z,17.27
2022-11-20T08:58:26.065Z,16.77
2022-11-20T09:00:52.589Z,16.60
2022-11-20T09:03:18.911Z,16.67
2022-11-20T09:05:45.334Z,16.80
2022-11-20T09:08:11.703Z,16.70
2022-11-20T09:10:40.560Z,17.15
2022-11-20T09:13:06.943Z,16.92
2022-11-20T09:15:33.723Z,17.30
2022-11-20T09:18:01.216Z,15.88
2022-11-20T09:20:29.500Z,17.50
2022-11-20T09:22:56.128Z,16.00
2022-11-20T09:25:22.465Z,14.77
2022-11-20T09:27:48.791Z,15.48
2022-11-20T09:30:15.767Z,14.85
2022-11-20T09:32:42.552Z,13.90
2022-11-20T09:35:09.339Z,12.90
2022-11-20T09:37:35.829Z,13.45
2022-11-20T09:40:02.180Z,13.15
2022-11-20T09:42:40.999Z,12.30
2022-11-20T09:45:25.595Z,12.80
2022-11-20T09:48:10.952Z,13.50
2022-11-20T09:50:39.248Z,13.52
2022-11-20T09:53:12.034Z,12.55
2022-11-20T09:55:38.629Z,13.18
2022-11-20T09:58:13.834Z,13.10
2022-11-20T10:00:40.348Z,14.43
2022-11-20T10:03:12.763Z,14.60
2022-11-20T10:05:46.886Z,14.07
2022-11-20T10:08:16.940Z,13.95
2022-11-20T10:10:49.455Z,14.43
2022-11-20T10:13:30.891Z,12.82
2022-11-20T10:16:06.395Z,13.93
2022-11-20T10:18:43.263Z,14.07
2022-11-20T10:21:12.635Z,13.23
2022-11-20T10:23:45.251Z,13.40
2022-11-20T10:26:22.549Z,13.82
2022-11-20T10:28:59.224Z,13.32
2022-11-20T10:31:31.580Z,13.88
2022-11-20T10:34:12.007Z,12.75
2022-11-20T10:36:47.870Z,13.20
2022-11-20T10:39:14.184Z,12.68
2022-11-20T10:41:41.896Z,12.23
2022-11-20T10:44:46.292Z,12.77
2022-11-20T10:47:14.473Z,13.18
2022-11-20T10:49:41.911Z,14.30
2022-11-20T10:52:20.492Z,13.43
2022-11-20T10:55:02.519Z,13.50
2022-11-20T10:57:49.158Z,13.95
2022-11-20T11:00:17.863Z,14.40
2022-11-20T11:02:47.024Z,12.35
2022-11-20T11:05:25.550Z,13.27
2022-11-20T11:07:54.080Z,12.82
2022-11-20T11:10:20.390Z,12.40
2022-11-20T11:12:49.095Z,12.50
2022-11-20T11:15:25.065Z,12.23
2022-11-20T11:17:51.368Z,12.32
2022-11-20T11:20:25.090Z,13.13
2022-11-20T11:22:56.101Z,11.80
2022-11-20T11:25:31.628Z,12.25
2022-11-20T11:27:59.482Z,11.88
2022-11-20T11:30:26.749Z,10.95
2022-11-20T11:33:03.488Z,11.63
2022-11-20T11:35:29.831Z,12.05
2022-11-20T11:38:03.333Z,11.25
2022-11-20T11:40:31.850Z,12.00
2022-11-20T11:42:59.740Z,11.77
2022-11-20T11:45:26.507Z,11.05
2022-11-20T11:47:54.144Z,11.48
2022-11-20T11:50:21.915Z,10.45
2022-11-20T11:53:07.096Z,11.30
2022-11-20T11:55:39.573Z,10.43
2022-11-20T11:58:24.796Z,9.38
2022-11-20T12:01:17.430Z,10.23
2022-11-20T12:03:45.494Z,9.43
2022-11-20T12:06:15.749Z,8.98
2022-11-20T12:08:56.810Z,9.43
2022-11-20T12:11:38.298Z,9.93
2022-11-20T12:14:28.023Z,10.88
2022-11-20T12:16:56.483Z,11.85
2022-11-20T12:19:22.993Z,11.65
2022-11-20T12:22:05.324Z,12.13
2022-11-20T12:24:37.801Z,11.50
2022-11-20T12:27:04.431Z,12.05
2022-11-20T12:29:30.699Z,12.55
2022-11-20T12:32:02.864Z,13.00
2022-11-20T12:34:48.440Z,12.63
2022-11-20T12:37:23.908Z,13.13
2022-11-20T12:39:51.574Z,13.30
2022-11-20T12:42:42.441Z,13.88
2022-11-20T12:45:11.873Z,13.70
2022-11-20T12:47:44.484Z,13.90
2022-11-20T12:50:30.625Z,13.98
2022-11-20T12:53:03.758Z,14.18
2022-11-20T12:55:36.097Z,15.25
2022-11-20T12:58:22.484Z,14.82
2022-11-20T13:00:55.423Z,14.57
2022-11-20T13:03:37.787Z,14.30
2022-11-20T13:06:07.328Z,15.50
2022-11-20T13:08:34.890Z,15.00
2022-11-20T13:11:19.618Z,14.40
2022-11-20T13:13:46.148Z,15.95
2022-11-20T13:16:35.956Z,15.98
2022-11-20T13:19:04.112Z,19.25
2022-11-20T13:21:40.996Z,20.00
2022-11-20T13:24:19.460Z,21.38
2022-11-20T13:26:45.963Z,21.92
2022-11-20T13:29:16.813Z,24.17
2022-11-20T13:31:45.311Z,21.65
2022-11-20T13:34:24.828Z,21.95
2022-11-20T13:36:52.217Z,20.42
2022-11-20T13:39:25.733Z,21.73
2022-11-20T13:41:56.417Z,21.42
2022-11-20T13:44:25.999Z,23.48
2022-11-20T13:46:52.509Z,23.05
2022-11-20T13:49:22.191Z,22.45
2022-11-20T13:51:51.347Z,29.48
2022-11-20T13:54:40.848Z,29.02
2022-11-20T13:57:25.998Z,31.30
2022-11-20T13:59:55.393Z,32.72
2022-11-20T14:02:22.814Z,33.92
2022-11-20T14:04:50.296Z,35.70
2022-11-20T14:07:17.814Z,36.75
2022-11-20T14:09:54.593Z,35.00
2022-11-20T14:12:22.705Z,35.70
2022-11-20T14:14:53.629Z,35.88
2022-11-20T14:17:21.429Z,37.60
2022-11-20T14:19:48.463Z,34.78
2022-11-20T14:22:14.765Z,35.35
2022-11-20T14:24:41.075Z,35.80
2022-11-20T14:27:20.857Z,37.67
2022-11-20T14:29:48.357Z,35.35
2022-11-20T14:32:19.094Z,35.38
2022-11-20T14:34:46.630Z,35.35
2022-11-20T14:37:17.101Z,37.10
2022-11-20T14:39:48.702Z,35.45
2022-11-20T14:42:22.764Z,36.08
2022-11-20T14:44:49.926Z,34.45
2022-11-20T14:47:19.480Z,35.10
2022-11-20T14:49:46.597Z,35.20
2022-11-20T14:52:17.483Z,35.38
2022-11-20T14:54:54.340Z,34.67
2022-11-20T14:57:28.512Z,35.13
2022-11-20T15:00:08.716Z,36.38
2022-11-20T15:02:35.526Z,36.35
2022-11-20T15:05:04.146Z,37.35
2022-11-20T15:07:35.247Z,35.88
2022-11-20T15:10:08.807Z,37.88
2022-11-20T15:12:36.877Z,36.95
2022-11-20T15:15:04.262Z,37.50
2022-11-20T15:17:31.299Z,36.40
2022-11-20T15:19:57.652Z,35.58
2022-11-20T15:22:24.003Z,35.53
2022-11-20T15:24:50.338Z,38.53
2022-11-20T15:27:17.717Z,38.88
2022-11-20T15:29:44.066Z,37.72
2022-11-20T15:32:13.370Z,38.42
2022-11-20T15:34:40.178Z,39.72
2022-11-20T15:37:06.559Z,37.75
2022-11-20T15:39:33.015Z,39.30
2022-11-20T15:41:59.395Z,39.00
2022-11-20T15:44:25.984Z,38.90
2022-11-20T15:46:52.429Z,39.38
2022-11-20T15:49:19.759Z,37.65
2022-11-20T15:51:47.959Z,39.35
2022-11-20T15:54:15.562Z,36.60
2022-11-20T15:56:41.954Z,36.80
2022-11-20T15:59:08.381Z,38.45
2022-11-20T16:01:35.039Z,38.40
2022-11-20T16:04:02.157Z,38.65
2022-11-20T16:06:28.455Z,36.05
2022-11-20T16:08:54.771Z,36.92
2022-11-20T16:11:21.112Z,35.75
2022-11-20T16:14:06.231Z,37.67
2022-11-20T16:16:36.280Z,40.00
2022-11-20T16:19:02.664Z,37.17
2022-11-20T16:21:31.963Z,44.10
2022-11-20T16:24:02.196Z,42.15
2022-11-20T16:26:28.928Z,39.67
2022-11-20T16:28:55.804Z,39.50
2022-11-20T16:31:22.603Z,41.30
2022-11-20T16:33:52.760Z,38.25
2022-11-20T16:36:19.697Z,37.25
2022-11-20T16:38:46.130Z,36.47
2022-11-20T16:41:15.573Z,35.15
2022-11-20T16:43:44.977Z,35.05
2022-11-20T16:46:11.307Z,35.50
2022-11-20T16:48:37.623Z,35.58
2022-11-20T16:51:04.085Z,36.97
2022-11-20T16:53:33.528Z,37.47
2022-11-20T16:56:08.815Z,38.72
2022-11-20T16:58:35.172Z,39.88
2022-11-20T17:01:11.773Z,39.80
2022-11-20T17:03:38.837Z,38.53
2022-11-20T17:06:15.867Z,37.13
2022-11-20T17:08:42.773Z,39.42
2022-11-20T17:11:09.798Z,36.10
2022-11-20T17:13:39.854Z,33.97
2022-11-20T17:16:11.214Z,34.65
2022-11-20T17:18:37.569Z,34.80
2022-11-20T17:21:05.335Z,35.35
2022-11-20T17:23:32.415Z,38.20
2022-11-20T17:26:06.340Z,36.58
2022-11-20T17:31:02.757Z,35.85
2022-11-20T17:33:29.567Z,36.10
2022-11-20T17:35:56.099Z,36.17
2022-11-20T17:38:22.796Z,33.45
2022-11-20T17:40:49.153Z,33.42
2022-11-20T17:43:15.540Z,34.22
2022-11-20T17:45:42.636Z,33.00
2022-11-20T17:48:08.935Z,34.67
2022-11-20T17:50:35.319Z,35.50
2022-11-20T17:53:01.695Z,34.33
2022-11-20T17:55:52.747Z,33.58
2022-11-20T17:58:21.760Z,31.10
2022-11-20T18:00:48.117Z,28.33
2022-11-20T18:03:14.448Z,27.38
2022-11-20T18:05:40.815Z,26.00
2022-11-20T18:08:07.131Z,25.17
2022-11-20T18:10:35.049Z,25.40
2022-11-20T18:13:01.438Z,22.83
2022-11-20T18:15:27.759Z,24.40
2022-11-20T18:17:54.135Z,21.13
2022-11-20T18:20:29.753Z,23.42
2022-11-20T18:22:57.640Z,23.27
2022-11-20T18:25:23.987Z,24.30
2022-11-20T18:27:50.282Z,22.65
2022-11-20T18:30:16.633Z,22.75
2022-11-20T18:32:43.297Z,24.90
2022-11-20T18:35:09.818Z,24.38
2022-11-20T18:37:36.150Z,26.65
2022-11-20T18:40:02.486Z,25.13
2022-11-20T18:42:47.596Z,25.60
2022-11-20T18:45:13.934Z,17.70
2022-11-20T18:47:40.313Z,21.45
2022-11-20T18:50:07.893Z,17.10
2022-11-20T18:52:38.238Z,14.80
2022-11-20T18:55:05.330Z,15.85
2022-11-20T18:57:31.989Z,15.45
2022-11-20T19:02:48.363Z,14.30
2022-11-20T19:05:14.926Z,13.55
2022-11-20T19:07:41.541Z,12.18
2022-11-20T19:10:08.379Z,11.88
2022-11-20T19:12:34.863Z,10.45
2022-11-20T19:15:01.184Z,9.30
2022-11-20T19:17:27.553Z,7.90
2022-11-20T19:19:54.939Z,7.53
2022-11-20T19:22:21.709Z,5.30
2022-11-20T19:24:48.370Z,6.28
2022-11-20T19:27:14.765Z,6.05
2022-11-20T19:29:41.131Z,5.93
2022-11-20T19:32:07.490Z,5.60
2022-11-20T19:34:35.296Z,5.20
2022-11-20T19:37:02.090Z,4.90
2022-11-20T19:39:28.520Z,4.72
2022-11-20T19:41:54.869Z,4.40
2022-11-20T19:44:21.300Z,4.22
2022-11-20T19:46:47.714Z,4.35
2022-11-20T19:49:14.441Z,3.65
2022-11-20T19:51:44.571Z,3.35
2022-11-20T19:54:10.914Z,3.33
2022-11-20T19:56:37.313Z,3.03
2022-11-20T19:59:03.744Z,2.55
2022-11-20T20:01:30.953Z,2.95
2022-11-20T20:04:01.279Z,2.45
2022-11-20T20:06:28.046Z,2.60
2022-11-20T20:09:05.102Z,2.55
2022-11-20T20:11:32.764Z,2.22
2022-11-20T20:14:03.284Z,2.30
2022-11-20T20:16:29.792Z,2.17
2022-11-20T20:18:57.152Z,2.20
2022-11-20T20:21:23.818Z,2.17
2022-11-20T20:23:51.078Z,2.00
2022-11-20T20:26:17.459Z,2.00
2022-11-20T20:28:43.818Z,2.30
2022-11-20T20:31:11.079Z,2.65
2022-11-20T20:33:38.228Z,2.45
2022-11-20T20:36:08.756Z,2.40
2022-11-20T20:38:35.388Z,2.42
2022-11-20T20:41:01.794Z,2.90
2022-11-20T20:43:28.240Z,2.70
2022-11-20T20:45:55.030Z,2.60
2022-11-20T20:48:22.686Z,2.90
2022-11-20T20:50:59.472Z,2.90
2022-11-20T20:53:26.018Z,3.45
2022-11-20T20:55:59.444Z,3.08
2022-11-20T20:58:26.291Z,3.55
2022-11-20T21:00:52.973Z,3.53
2022-11-20T21:03:19.477Z,3.47
2022-11-20T21:05:45.896Z,3.50
2022-11-20T21:08:21.183Z,3.50
2022-11-20T21:11:04.400Z,3.75
2022-11-20T21:13:30.881Z,3.60
2022-11-20T21:15:57.290Z,3.70
2022-11-20T21:18:23.999Z,4.13
2022-11-20T21:21:09.057Z,4.10
2022-11-20T21:23:36.012Z,3.47
2022-11-20T21:26:06.815Z,3.80
2022-11-20T21:28:34.237Z,3.33
2022-11-20T21:31:08.544Z,3.72
2022-11-20T21:33:39.526Z,3.90
2022-11-20T21:36:06.902Z,3.70
2022-11-20T21:38:33.748Z,4.55
2022-11-20T21:41:00.351Z,4.63
2022-11-20T21:43:26.752Z,4.90
2022-11-20T21:45:53.321Z,4.10
2022-11-20T21:48:19.659Z,4.40
2022-11-20T21:50:46.017Z,4.43
2022-11-20T21:53:12.311Z,4.18
2022-11-20T21:55:38.669Z,4.28
2022-11-20T21:58:04.960Z,4.25
2022-11-20T22:00:31.255Z,4.10
2022-11-20T22:02:57.785Z,4.25
2022-11-20T22:05:24.190Z,4.40
2022-11-20T22:07:50.582Z,4.20
2022-11-20T22:10:18.746Z,4.10
2022-11-20T22:12:45.252Z,4.63
2022-11-20T22:15:11.577Z,3.92
2022-11-20T22:17:56.612Z,3.70
2022-11-20T22:20:22.941Z,3.67
2022-11-20T22:22:49.284Z,3.75
2022-11-20T22:25:15.666Z,4.07
2022-11-20T22:27:41.947Z,3.63
2022-11-20T22:30:08.490Z,3.63
2022-11-20T22:32:34.754Z,3.95
2022-11-20T22:35:01.100Z,4.18
2022-11-20T22:37:27.387Z,3.45
2022-11-20T22:39:53.727Z,3.22
2022-11-20T22:42:20.085Z,3.60
2022-11-20T22:44:46.436Z,3.67
2022-11-20T22:47:12.747Z,2.92
2022-11-20T22:49:39.080Z,2.70
2022-11-20T22:52:05.438Z,2.53
2022-11-20T22:54:31.729Z,2.67
2022-11-20T22:56:58.108Z,2.40
2022-11-20T22:59:24.398Z,2.22
2022-11-20T23:01:50.715Z,2.13
2022-11-20T23:04:16.990Z,2.00
2022-11-20T23:06:43.336Z,1.92
2022-11-20T23:09:09.784Z,1.80
2022-11-20T23:11:36.555Z,1.80
2022-11-20T23:14:07.281Z,1.95
2022-11-20T23:16:34.280Z,1.98
2022-11-20T23:19:05.372Z,2.20
2022-11-20T23:21:32.192Z,2.13
2022-11-20T23:23:59.488Z,1.70
2022-11-20T23:26:31.460Z,2.08
2022-11-20T23:28:58.445Z,1.95
2022-11-20T23:31:25.619Z,2.78
2022-11-20T23:33:52.042Z,1.77
2022-11-20T23:36:18.458Z,2.20
2022-11-20T23:38:44.870Z,2.53
2022-11-20T23:41:11.442Z,1.90
2022-11-20T23:43:37.747Z,1.90
2022-11-20T23:46:04.406Z,2.05
2022-11-20T23:48:31.683Z,2.08
2022-11-20T23:50:58.102Z,1.92
2022-11-20T23:53:24.665Z,2.05
2022-11-20T23:55:51.976Z,2.10
2022-11-20T23:58:18.910Z,2.17
